Time;durP1;ratioP1;P1;durP2;ratioP2;P2;SDS_P1;SDS_P2;PMS_P1;PMS_P2;Temp;Humidity;BMP_temperature;BMP_pressure;BME280_temperature;BME280_humidity;BME280_pressure;Samples;Min_cycle;Max_cycle;Signal;HPM_P1;HPM_P2
2022/01/18 00:01:50;;;;;;;32.53;17.42;;;4.00;99.90;;;;;;5039589;28;20029;-66
2022/01/18 00:04:16;;;;;;;38.67;17.55;;;4.00;99.90;;;;;;5034394;28;20395;-67
2022/01/18 00:06:46;;;;;;;35.35;18.00;;;3.90;99.90;;;;;;5037954;28;20445;-67
2022/01/18 00:09:12;;;;;;;34.35;18.13;;;4.00;99.90;;;;;;5038167;28;20029;-68
2022/01/18 00:11:48;;;;;;;37.95;18.05;;;4.00;99.90;;;;;;5050328;28;20027;-67
2022/01/18 00:17:40;;;;;;;35.05;18.50;;;4.00;99.90;;;;;;5041856;28;20025;-67
2022/01/18 00:20:04;;;;;;;39.00;18.80;;;4.00;99.90;;;;;;5050408;28;20029;-68
2022/01/18 00:22:31;;;;;;;38.25;17.98;;;4.00;99.90;;;;;;5050042;28;20528;-68
2022/01/18 00:24:59;;;;;;;35.85;18.17;;;4.00;99.90;;;;;;5036305;28;20101;-67
2022/01/18 00:27:25;;;;;;;42.13;19.08;;;4.00;99.90;;;;;;5034125;28;20028;-68
2022/01/18 00:30:04;;;;;;;39.53;17.98;;;4.00;99.90;;;;;;5041396;28;20089;-67
2022/01/18 00:34:58;;;;;;;37.28;18.40;;;4.10;99.90;;;;;;5066505;28;20025;-65
2022/01/18 00:39:50;;;;;;;38.00;18.17;;;4.10;99.90;;;;;;5051506;28;20056;-67
2022/01/18 00:42:15;;;;;;;35.28;17.63;;;4.10;99.90;;;;;;5040918;28;20110;-67
2022/01/18 00:44:41;;;;;;;38.03;18.63;;;4.10;99.90;;;;;;5037841;28;20052;-67
2022/01/18 00:47:07;;;;;;;40.67;19.02;;;4.10;99.90;;;;;;5037487;28;20032;-66
2022/01/18 00:49:40;;;;;;;46.45;19.75;;;4.10;99.90;;;;;;5038259;28;20040;-67
2022/01/18 00:52:07;;;;;;;40.30;18.80;;;4.10;99.90;;;;;;5049580;28;20025;-68
2022/01/18 00:54:38;;;;;;;35.85;17.92;;;4.10;99.90;;;;;;5052518;28;20116;-67
2022/01/18 00:57:05;;;;;;;26.83;13.55;;;4.20;99.90;;;;;;5041656;28;20191;-68
2022/01/18 00:59:31;;;;;;;35.50;17.17;;;4.20;99.90;;;;;;5035761;28;20342;-67
2022/01/18 01:01:57;;;;;;;37.92;19.27;;;4.20;99.90;;;;;;5037073;28;20023;-67
2022/01/18 01:04:26;;;;;;;41.58;19.77;;;4.20;99.90;;;;;;5047302;28;20519;-67
2022/01/18 01:06:52;;;;;;;39.47;19.77;;;4.20;99.90;;;;;;5048483;28;20075;-68
2022/01/18 01:09:18;;;;;;;43.47;20.17;;;4.10;99.90;;;;;;5054747;28;20048;-67
2022/01/18 01:11:43;;;;;;;39.80;18.25;;;4.20;99.90;;;;;;5053116;28;20036;-67
2022/01/18 01:14:17;;;;;;;39.28;18.35;;;4.10;99.90;;;;;;5055415;28;20071;-67
2022/01/18 01:36:02;;;;;;;42.50;18.40;;;4.00;99.90;;;;;;5058876;28;20028;-67
2022/01/18 01:46:28;;;;;;;42.53;18.97;;;4.10;99.90;;;;;;5068447;28;20052;-66
2022/01/18 01:48:56;;;;;;;45.30;19.27;;;4.10;99.90;;;;;;5038150;28;20029;-67
2022/01/18 01:51:29;;;;;;;48.60;20.33;;;4.10;99.90;;;;;;5039588;28;20033;-67
2022/01/18 01:53:56;;;;;;;45.13;20.13;;;4.10;99.90;;;;;;5051500;28;20063;-68
2022/01/18 01:56:22;;;;;;;47.67;19.00;;;4.10;99.90;;;;;;5053145;28;20031;-66
2022/01/18 01:58:48;;;;;;;45.58;19.05;;;4.10;99.90;;;;;;5027904;28;20393;-67
2022/01/18 02:01:14;;;;;;;40.65;19.35;;;4.10;99.90;;;;;;5037900;28;20115;-67
2022/01/18 02:03:39;;;;;;;40.33;18.20;;;4.10;99.90;;;;;;5036100;28;20489;-67
2022/01/18 02:06:05;;;;;;;40.80;18.48;;;4.10;99.90;;;;;;5037838;28;20051;-67
2022/01/18 02:08:30;;;;;;;44.47;18.98;;;4.10;99.90;;;;;;5042112;28;20766;-67
2022/01/18 02:10:56;;;;;;;43.00;18.95;;;4.10;99.90;;;;;;5050465;28;20112;-67
2022/01/18 02:13:22;;;;;;;39.42;18.55;;;4.10;99.90;;;;;;5036782;28;20104;-67
2022/01/18 02:24:13;;;;;;;39.92;18.38;;;4.00;99.90;;;;;;5070700;28;20112;-67
2022/01/18 02:26:39;;;;;;;41.50;17.63;;;4.00;99.90;;;;;;5040097;28;20500;-67
2022/01/18 02:29:08;;;;;;;47.97;18.75;;;4.00;99.90;;;;;;5032547;28;20492;-65
2022/01/18 02:31:34;;;;;;;43.53;18.33;;;4.10;99.90;;;;;;5035449;28;20033;-66
2022/01/18 02:34:02;;;;;;;43.03;17.48;;;4.10;99.90;;;;;;5034991;28;20036;-67
2022/01/18 02:36:28;;;;;;;41.22;16.88;;;4.10;99.90;;;;;;5035445;28;20078;-68
2022/01/18 02:38:53;;;;;;;39.47;16.58;;;4.00;99.90;;;;;;5046132;28;20107;-66
2022/01/18 02:41:25;;;;;;;38.55;16.48;;;4.00;99.90;;;;;;5050799;28;20051;-68
2022/01/18 02:43:55;;;;;;;36.38;16.42;;;4.00;99.90;;;;;;5050382;28;20234;-65
2022/01/18 02:46:21;;;;;;;36.85;16.20;;;4.00;99.90;;;;;;5034429;28;20037;-67
2022/01/18 02:48:47;;;;;;;35.30;16.30;;;4.00;99.90;;;;;;5038642;28;20107;-68
2022/01/18 02:51:13;;;;;;;34.90;16.40;;;4.10;99.90;;;;;;5035293;28;20373;-67
2022/01/18 02:54:00;;;;;;;43.90;16.45;;;4.10;99.90;;;;;;5055788;28;20029;-67
2022/01/18 02:56:29;;;;;;;36.40;15.38;;;4.10;99.90;;;;;;5038598;28;20021;-67
2022/01/18 03:04:24;;;;;;;34.70;15.25;;;4.20;99.90;;;;;;5053363;28;20473;-66
2022/01/18 03:06:50;;;;;;;37.30;16.00;;;4.20;99.90;;;;;;5047108;28;20024;-65
2022/01/18 03:09:16;;;;;;;38.03;16.00;;;4.20;99.90;;;;;;5034863;28;20025;-65
2022/01/18 03:11:41;;;;;;;33.50;15.93;;;4.20;99.90;;;;;;5044550;28;20025;-65
2022/01/18 03:14:07;;;;;;;40.28;16.33;;;4.20;99.90;;;;;;5029913;28;20115;-65
2022/01/18 03:16:33;;;;;;;35.78;16.13;;;4.20;99.90;;;;;;5030410;28;20408;-65
2022/01/18 03:18:59;;;;;;;34.22;15.63;;;4.20;99.90;;;;;;5044711;28;20032;-65
2022/01/18 03:21:25;;;;;;;42.63;17.92;;;4.20;99.90;;;;;;5039126;28;20543;-65
2022/01/18 03:23:55;;;;;;;35.15;15.88;;;4.20;99.90;;;;;;5044878;28;20033;-66
2022/01/18 03:26:31;;;;;;;42.45;16.70;;;4.20;99.90;;;;;;5043685;28;20062;-66
2022/01/18 03:28:56;;;;;;;39.40;17.45;;;4.20;99.90;;;;;;5049157;28;20115;-66
2022/01/18 03:31:22;;;;;;;43.17;18.17;;;4.20;99.90;;;;;;5034235;28;20132;-65
2022/01/18 03:33:47;;;;;;;39.13;17.08;;;4.20;99.90;;;;;;5037840;28;20346;-65
2022/01/18 03:36:13;;;;;;;41.05;17.88;;;4.20;99.90;;;;;;5040643;28;20499;-66
2022/01/18 03:38:39;;;;;;;41.80;17.05;;;4.10;99.90;;;;;;5034596;28;20586;-66
2022/01/18 03:41:05;;;;;;;39.40;17.05;;;4.10;99.90;;;;;;5034812;28;20024;-65
2022/01/18 03:43:32;;;;;;;39.50;17.40;;;4.10;99.90;;;;;;5033922;28;20025;-65
2022/01/18 03:46:04;;;;;;;42.78;17.35;;;4.10;99.90;;;;;;5032215;28;20036;-67
2022/01/18 03:48:36;;;;;;;;;;;4.10;99.90;;;;;;5018444;28;20029;-65
2022/01/18 03:51:04;;;;;;;38.92;17.25;;;4.10;99.90;;;;;;5032529;28;20361;-66
2022/01/18 03:53:30;;;;;;;44.17;16.00;;;4.00;99.90;;;;;;5032770;28;20037;-66
2022/01/18 03:55:57;;;;;;;40.78;16.65;;;4.00;99.90;;;;;;5033928;28;20021;-65
2022/01/18 03:58:23;;;;;;;42.95;17.45;;;4.10;99.90;;;;;;5033238;28;20025;-66
2022/01/18 04:00:50;;;;;;;49.58;18.25;;;4.10;99.90;;;;;;5032533;28;20122;-66
2022/01/18 04:03:16;;;;;;;46.63;18.75;;;4.10;99.90;;;;;;5031517;28;20040;-66
2022/01/18 04:05:42;;;;;;;52.17;19.42;;;4.10;99.90;;;;;;5032751;28;20051;-67
2022/01/18 04:08:07;;;;;;;62.53;20.38;;;4.10;99.90;;;;;;5043682;28;20025;-67
2022/01/18 04:10:33;;;;;;;61.50;21.77;;;4.10;99.90;;;;;;5032372;28;20499;-65
2022/01/18 04:12:59;;;;;;;64.45;21.45;;;4.10;99.90;;;;;;5033595;28;20437;-67
2022/01/18 04:15:25;;;;;;;59.30;20.70;;;4.10;99.90;;;;;;5031770;28;20048;-66
2022/01/18 04:26:52;;;;;;;67.40;20.23;;;4.10;99.90;;;;;;5065855;28;20047;-66
2022/01/18 04:28:54;;;;;;;72.63;21.73;;;4.10;99.90;;;;;;5066187;28;20033;-64
2022/01/18 04:31:20;;;;;;;72.20;21.98;;;4.10;99.90;;;;;;5037487;28;20039;-66
2022/01/18 04:33:46;;;;;;;70.68;21.60;;;4.10;99.90;;;;;;5057822;23;20036;-68
2022/01/18 04:36:12;;;;;;;70.47;21.98;;;4.10;99.90;;;;;;5047426;28;20580;-68
2022/01/18 04:38:39;;;;;;;70.65;20.50;;;4.10;99.90;;;;;;5031122;28;20035;-68
2022/01/18 04:41:08;;;;;;;63.42;21.80;;;4.10;99.90;;;;;;5035464;28;20017;-67
2022/01/18 04:48:54;;;;;;;76.70;23.52;;;4.20;99.90;;;;;;5053426;28;20170;-68
2022/01/18 04:51:20;;;;;;;71.80;23.17;;;4.10;99.90;;;;;;5035788;28;20115;-68
2022/01/18 04:53:55;;;;;;;67.35;21.98;;;4.20;99.90;;;;;;5035353;28;20021;-68
2022/01/18 04:59:05;;;;;;;69.13;20.58;;;4.10;99.90;;;;;;5053233;28;20369;-68
2022/01/18 05:01:32;;;;;;;64.47;21.17;;;4.10;99.90;;;;;;5042711;28;20032;-67
2022/01/18 05:03:58;;;;;;;64.05;20.77;;;4.10;99.90;;;;;;5050639;28;20056;-68
2022/01/18 05:06:24;;;;;;;67.18;22.25;;;4.10;99.90;;;;;;5035350;28;20109;-68
2022/01/18 05:08:50;;;;;;;63.08;20.77;;;4.00;99.90;;;;;;5052047;28;20054;-68
2022/01/18 05:11:19;;;;;;;56.00;19.95;;;4.00;99.90;;;;;;5051363;28;20504;-68
2022/01/18 05:21:26;;;;;;;61.58;20.80;;;3.90;99.90;;;;;;5039965;28;20032;-69
2022/01/18 05:23:52;;;;;;;61.40;20.73;;;3.80;99.90;;;;;;5028368;28;20053;-68
2022/01/18 05:26:18;;;;;;;68.93;20.65;;;3.80;99.90;;;;;;5035094;28;20384;-68
2022/01/18 05:28:44;;;;;;;60.60;20.02;;;3.80;99.90;;;;;;5050576;28;20374;-68
2022/01/18 05:31:10;;;;;;;77.18;20.42;;;3.80;99.90;;;;;;5050877;28;20077;-67
2022/01/18 05:33:36;;;;;;;135.85;19.75;;;3.80;99.90;;;;;;5051263;28;20036;-68
2022/01/18 05:36:01;;;;;;;108.70;20.83;;;3.80;99.90;;;;;;5034600;28;20037;-68
2022/01/18 05:38:29;;;;;;;59.00;18.33;;;3.70;99.90;;;;;;5026479;28;20017;-68
2022/01/18 05:40:55;;;;;;;72.88;17.60;;;3.80;99.90;;;;;;5034071;28;20025;-68
2022/01/18 05:43:20;;;;;;;143.68;20.13;;;3.80;99.90;;;;;;5050176;28;20032;-68
2022/01/18 05:45:46;;;;;;;161.48;20.02;;;3.80;99.90;;;;;;5034633;28;20064;-67
2022/01/18 05:48:12;;;;;;;143.73;19.60;;;3.80;99.90;;;;;;5028263;28;20505;-68
2022/01/18 05:50:37;;;;;;;74.38;22.35;;;3.80;99.90;;;;;;5037778;28;20025;-68
2022/01/18 05:53:03;;;;;;;72.30;21.98;;;3.70;99.90;;;;;;5051096;28;20040;-68
2022/01/18 05:55:29;;;;;;;58.70;21.35;;;3.70;99.90;;;;;;5050484;28;20044;-68
2022/01/18 05:57:54;;;;;;;58.33;20.17;;;3.70;99.90;;;;;;5050776;28;20154;-68
2022/01/18 06:00:23;;;;;;;59.17;20.55;;;3.70;99.90;;;;;;5034256;28;20021;-70
2022/01/18 06:08:05;;;;;;;55.00;18.55;;;3.70;99.90;;;;;;5042832;28;19955;-67
2022/01/18 06:10:31;;;;;;;49.42;18.52;;;3.70;99.90;;;;;;5046239;28;20064;-67
2022/01/18 06:13:00;;;;;;;55.22;18.98;;;3.70;99.90;;;;;;5051838;28;20040;-68
2022/01/18 06:15:26;;;;;;;55.95;18.20;;;3.60;99.90;;;;;;5048814;28;20380;-68
2022/01/18 06:17:54;;;;;;;51.92;17.42;;;3.60;99.90;;;;;;5026371;28;20128;-66
2022/01/18 06:20:20;;;;;;;52.45;18.20;;;3.60;99.90;;;;;;5033793;28;20021;-71
2022/01/18 06:22:45;;;;;;;47.88;16.40;;;3.60;99.90;;;;;;5032725;28;20151;-71
2022/01/18 06:25:11;;;;;;;53.78;17.13;;;3.50;99.90;;;;;;5030774;28;20033;-68
2022/01/18 06:27:37;;;;;;;49.83;18.42;;;3.50;99.90;;;;;;5033231;28;20025;-68
2022/01/18 06:30:09;;;;;;;59.05;17.30;;;3.50;99.90;;;;;;5035012;28;20021;-69
2022/01/18 06:32:39;;;;;;;48.63;17.20;;;3.50;99.90;;;;;;5039199;28;20052;-68
2022/01/18 06:35:07;;;;;;;53.78;16.90;;;3.50;99.90;;;;;;5048602;28;20040;-70
2022/01/18 06:37:34;;;;;;;46.47;15.85;;;3.50;99.90;;;;;;5050978;28;20424;-69
2022/01/18 06:40:01;;;;;;;47.47;15.60;;;3.50;99.90;;;;;;5031527;28;20660;-68
2022/01/18 06:42:27;;;;;;;41.53;16.15;;;3.50;99.90;;;;;;5050410;28;20123;-69
2022/01/18 06:44:53;;;;;;;38.97;14.57;;;3.50;99.90;;;;;;5042074;28;20052;-68
2022/01/18 06:47:19;;;;;;;35.40;13.63;;;3.50;99.90;;;;;;5065882;28;20102;-69
2022/01/18 06:49:45;;;;;;;44.25;14.52;;;3.60;99.90;;;;;;5034176;28;20802;-68
2022/01/18 06:52:10;;;;;;;42.95;13.93;;;3.60;99.90;;;;;;5050936;28;20048;-69
2022/01/18 06:54:36;;;;;;;40.22;14.90;;;3.60;99.90;;;;;;5050166;28;20106;-68
2022/01/18 06:57:03;;;;;;;38.70;13.88;;;3.60;99.90;;;;;;5033700;28;20028;-69
2022/01/18 06:59:29;;;;;;;36.35;12.63;;;3.60;99.90;;;;;;5051227;28;20021;-67
2022/01/18 07:01:54;;;;;;;40.22;13.52;;;3.70;99.90;;;;;;5051210;28;20028;-66
2022/01/18 07:04:20;;;;;;;43.00;13.50;;;3.60;99.90;;;;;;5032934;28;20024;-68
2022/01/18 07:06:46;;;;;;;38.42;12.82;;;3.70;99.90;;;;;;5036651;28;20029;-67
2022/01/18 07:09:22;;;;;;;41.75;13.32;;;3.70;99.90;;;;;;5049801;28;20031;-68
2022/01/18 07:11:49;;;;;;;37.13;14.18;;;3.70;99.90;;;;;;5033846;28;20124;-69
2022/01/18 07:14:14;;;;;;;44.95;15.02;;;3.70;99.90;;;;;;5049521;28;20037;-68
2022/01/18 07:16:43;;;;;;;40.10;14.38;;;3.70;99.90;;;;;;5050415;28;20592;-68
2022/01/18 07:19:09;;;;;;;34.85;12.77;;;3.70;99.90;;;;;;5035205;28;20397;-67
2022/01/18 07:21:34;;;;;;;42.10;14.00;;;3.60;99.90;;;;;;5027972;28;20021;-68
2022/01/18 07:24:16;;;;;;;44.40;14.10;;;3.60;99.90;;;;;;5038375;28;20025;-68
2022/01/18 07:26:42;;;;;;;40.25;14.13;;;3.60;99.90;;;;;;5056025;28;20021;-68
2022/01/18 07:29:07;;;;;;;37.42;12.43;;;3.60;99.90;;;;;;5032968;28;20036;-67
2022/01/18 07:31:33;;;;;;;36.58;13.27;;;3.60;99.90;;;;;;5050238;28;20521;-67
2022/01/18 07:33:59;;;;;;;36.50;13.60;;;3.60;99.90;;;;;;5050290;28;20036;-68
2022/01/18 07:36:25;;;;;;;39.42;13.77;;;3.60;99.90;;;;;;5049938;28;20029;-68
2022/01/18 07:38:51;;;;;;;39.17;14.02;;;3.60;99.90;;;;;;5033404;28;20025;-68
2022/01/18 07:41:17;;;;;;;39.38;14.60;;;3.70;99.90;;;;;;5049843;28;20021;-68
2022/01/18 07:43:43;;;;;;;38.35;14.02;;;3.70;99.90;;;;;;5058486;28;20040;-68
2022/01/18 07:46:09;;;;;;;39.70;15.23;;;3.70;99.90;;;;;;5038242;28;20032;-68
2022/01/18 07:48:35;;;;;;;48.38;15.30;;;3.70;99.90;;;;;;5049454;28;20572;-68
2022/01/18 07:51:00;;;;;;;44.33;14.60;;;3.60;99.90;;;;;;5016777;28;20049;-68
2022/01/18 07:53:26;;;;;;;41.67;14.45;;;3.60;99.90;;;;;;5013458;28;20030;-68
2022/01/18 07:55:52;;;;;;;43.88;15.13;;;3.60;99.90;;;;;;5014005;28;20032;-67
2022/01/18 07:58:18;;;;;;;45.10;16.42;;;3.60;99.90;;;;;;5013454;28;20463;-68
2022/01/18 08:00:44;;;;;;;54.20;17.58;;;3.60;99.90;;;;;;5014004;28;20148;-67
2022/01/18 08:03:10;;;;;;;46.72;15.55;;;3.60;99.90;;;;;;5037813;28;20119;-68
2022/01/18 08:05:37;;;;;;;41.95;15.20;;;3.60;99.90;;;;;;5050211;28;20049;-68
2022/01/18 08:08:04;;;;;;;41.22;14.45;;;3.60;99.90;;;;;;5033159;28;20025;-67
2022/01/18 08:10:30;;;;;;;41.15;13.77;;;3.70;99.90;;;;;;5033202;28;20485;-68
2022/01/18 08:13:02;;;;;;;40.85;13.95;;;3.70;99.90;;;;;;5050002;28;20033;-66
2022/01/18 08:15:36;;;;;;;46.83;15.30;;;3.70;99.90;;;;;;5049241;28;20110;-68
2022/01/18 08:18:07;;;;;;;42.33;15.70;;;3.70;99.90;;;;;;5049564;28;20064;-67
2022/01/18 08:20:32;;;;;;;46.10;15.30;;;3.70;99.90;;;;;;5038674;28;20025;-68
2022/01/18 08:22:58;;;;;;;53.28;19.33;;;3.70;99.90;;;;;;5050053;28;20035;-67
2022/01/18 08:25:24;;;;;;;46.75;18.48;;;3.70;99.90;;;;;;5033022;28;20025;-68
2022/01/18 08:27:50;;;;;;;52.50;18.27;;;3.70;99.90;;;;;;5033224;28;20071;-68
2022/01/18 08:30:17;;;;;;;46.08;16.50;;;3.70;99.90;;;;;;5033480;28;20564;-67
2022/01/18 08:32:43;;;;;;;43.10;15.55;;;3.80;99.90;;;;;;5032287;28;20036;-66
2022/01/18 08:35:09;;;;;;;43.35;15.98;;;3.70;99.90;;;;;;5033865;28;20036;-67
2022/01/18 08:37:35;;;;;;;46.13;15.50;;;3.80;99.90;;;;;;5030508;28;20112;-67
2022/01/18 08:40:01;;;;;;;46.35;14.55;;;3.80;99.90;;;;;;5046329;28;20064;-68
2022/01/18 08:42:26;;;;;;;47.83;15.02;;;3.80;99.90;;;;;;5046403;28;20489;-68
2022/01/18 08:44:53;;;;;;;39.42;14.10;;;3.80;99.90;;;;;;5046504;28;20034;-68
2022/01/18 08:47:19;;;;;;;33.60;13.05;;;3.80;99.90;;;;;;5045970;28;20488;-67
2022/01/18 08:49:45;;;;;;;38.05;12.73;;;3.90;99.90;;;;;;5049118;28;20037;-67
2022/01/18 08:52:12;;;;;;;36.58;12.30;;;3.90;99.90;;;;;;5032891;28;20032;-68
2022/01/18 08:54:39;;;;;;;36.75;11.68;;;3.90;99.90;;;;;;5048505;28;20477;-68
2022/01/18 08:57:05;;;;;;;36.22;12.15;;;4.00;99.90;;;;;;5047326;28;21108;-68
2022/01/18 08:59:35;;;;;;;38.35;12.88;;;4.00;99.90;;;;;;5030650;28;20469;-69
2022/01/18 09:02:02;;;;;;;36.75;13.30;;;4.10;99.90;;;;;;5040651;28;20013;-67
2022/01/18 09:04:27;;;;;;;41.08;12.43;;;4.10;99.90;;;;;;5031284;28;20113;-68
2022/01/18 09:06:53;;;;;;;34.30;12.52;;;4.20;99.90;;;;;;5033079;28;20589;-67
2022/01/18 09:09:20;;;;;;;38.80;12.60;;;4.20;99.90;;;;;;5054032;28;20496;-68
2022/01/18 09:11:46;;;;;;;33.40;12.07;;;4.20;99.90;;;;;;5036628;28;20052;-69
2022/01/18 09:14:14;;;;;;;36.00;12.52;;;4.30;99.90;;;;;;5035567;28;20025;-69
2022/01/18 09:16:40;;;;;;;33.85;11.02;;;4.30;99.90;;;;;;5052812;28;20028;-69
2022/01/18 09:19:06;;;;;;;28.15;10.82;;;4.40;99.90;;;;;;5034679;28;20035;-67
2022/01/18 09:21:33;;;;;;;28.55;10.38;;;4.40;99.90;;;;;;5059504;28;20025;-69
2022/01/18 09:24:00;;;;;;;35.53;11.35;;;4.50;99.90;;;;;;5039191;28;20382;-68
2022/01/18 09:26:26;;;;;;;32.92;12.45;;;4.60;99.90;;;;;;5051217;28;20358;-68
2022/01/18 09:28:51;;;;;;;36.65;13.05;;;4.60;99.90;;;;;;5051521;28;20029;-67
2022/01/18 09:31:17;;;;;;;37.05;12.50;;;4.60;99.90;;;;;;5038836;28;20063;-68
2022/01/18 09:33:43;;;;;;;44.75;13.35;;;4.60;99.90;;;;;;5035582;28;20082;-68
2022/01/18 09:36:09;;;;;;;34.75;13.07;;;4.60;99.90;;;;;;5052000;28;20025;-68
2022/01/18 09:38:34;;;;;;;37.03;12.25;;;4.70;99.90;;;;;;5034920;28;20401;-67
2022/01/18 09:41:08;;;;;;;35.20;12.75;;;4.60;99.90;;;;;;5035835;28;20087;-69
2022/01/18 09:43:34;;;;;;;34.90;12.57;;;4.60;99.90;;;;;;5036041;28;20119;-70
2022/01/18 09:46:00;;;;;;;32.88;11.40;;;4.70;99.90;;;;;;5035584;28;20036;-70
2022/01/18 09:48:26;;;;;;;35.13;13.15;;;4.70;99.90;;;;;;5033748;28;20021;-70
2022/01/18 09:50:52;;;;;;;32.15;13.05;;;4.70;99.90;;;;;;5035524;28;20025;-70
2022/01/18 09:53:17;;;;;;;39.65;13.55;;;4.70;99.90;;;;;;5035299;28;20029;-69
2022/01/18 09:55:43;;;;;;;34.45;13.07;;;4.70;99.90;;;;;;5035621;28;20028;-69
2022/01/18 09:58:11;;;;;;;38.53;13.52;;;4.70;99.90;;;;;;5051496;28;20035;-70
2022/01/18 10:00:40;;;;;;;37.88;13.35;;;4.70;99.90;;;;;;5036028;28;20113;-69
2022/01/18 10:03:09;;;;;;;33.30;13.23;;;4.70;99.90;;;;;;5034493;28;20087;-69
2022/01/18 10:05:37;;;;;;;33.30;13.60;;;4.70;99.90;;;;;;5035076;28;20091;-69
2022/01/18 10:08:12;;;;;;;37.92;13.50;;;4.70;99.90;;;;;;5035065;28;20066;-69
2022/01/18 10:10:50;;;;;;;30.77;12.43;;;4.80;99.90;;;;;;5058920;28;20429;-66
2022/01/18 10:13:31;;;;;;;33.00;12.88;;;4.70;99.90;;;;;;5035075;28;20027;-69
2022/01/18 10:16:00;;;;;;;35.17;13.23;;;4.70;99.90;;;;;;5033897;28;20028;-69
2022/01/18 10:18:43;;;;;;;33.03;13.13;;;4.80;99.90;;;;;;5037270;28;20530;-68
2022/01/18 10:21:09;;;;;;;36.28;13.25;;;4.80;99.90;;;;;;5036764;28;20029;-68
2022/01/18 10:23:36;;;;;;;26.90;11.45;;;4.80;99.90;;;;;;5034856;28;20039;-68
2022/01/18 10:26:25;;;;;;;31.80;12.80;;;4.90;99.90;;;;;;5035665;28;20033;-68
2022/01/18 10:29:05;;;;;;;30.13;11.05;;;4.90;99.90;;;;;;5049444;28;20037;-69
2022/01/18 10:37:04;;;;;;;27.20;10.90;;;5.00;99.90;;;;;;5052017;28;20581;-69
2022/01/18 10:39:42;;;;;;;24.42;10.45;;;5.10;99.90;;;;;;5033526;28;20029;-69
2022/01/18 10:42:17;;;;;;;23.73;9.38;;;5.10;99.90;;;;;;5050116;28;20630;-69
2022/01/18 10:44:45;;;;;;;26.90;9.90;;;5.20;99.90;;;;;;5034062;28;20029;-68
2022/01/18 10:47:11;;;;;;;28.85;10.32;;;5.20;99.90;;;;;;5050384;28;20032;-68
2022/01/18 10:49:43;;;;;;;23.75;9.73;;;5.20;99.90;;;;;;5034015;28;20416;-68
2022/01/18 10:52:22;;;;;;;22.27;9.27;;;5.20;99.90;;;;;;5052637;28;20017;-69
2022/01/18 10:54:49;;;;;;;22.52;8.60;;;5.20;99.90;;;;;;5033621;28;20036;-69
2022/01/18 10:57:27;;;;;;;23.92;8.73;;;5.20;99.90;;;;;;5033790;28;20025;-68
2022/01/18 10:59:58;;;;;;;15.88;7.45;;;5.30;99.90;;;;;;5047450;28;20032;-67
2022/01/18 11:02:24;;;;;;;23.52;8.98;;;5.40;99.90;;;;;;5034216;28;20017;-69
2022/01/18 11:04:56;;;;;;;19.98;8.75;;;5.50;99.90;;;;;;5063004;23;20576;-66
2022/01/18 11:07:24;;;;;;;18.42;8.80;;;5.50;99.90;;;;;;5045173;28;20034;-66
2022/01/18 11:09:50;;;;;;;18.80;8.20;;;5.50;99.90;;;;;;5056979;28;20081;-67
2022/01/18 11:12:19;;;;;;;15.25;7.53;;;5.60;99.90;;;;;;5042256;28;20389;-67
2022/01/18 11:14:47;;;;;;;14.45;6.63;;;5.70;99.90;;;;;;5050544;28;20074;-66
2022/01/18 11:17:22;;;;;;;12.25;6.10;;;5.70;99.90;;;;;;5053773;28;20025;-66
2022/01/18 11:19:50;;;;;;;12.23;5.68;;;5.70;99.90;;;;;;5052230;28;20028;-67
2022/01/18 11:22:16;;;;;;;11.82;4.97;;;5.70;99.90;;;;;;5054441;28;20035;-66
2022/01/18 11:24:45;;;;;;;12.02;4.43;;;5.70;99.90;;;;;;5047746;28;20021;-67
2022/01/18 11:27:14;;;;;;;11.65;4.57;;;5.70;99.90;;;;;;5053273;28;20362;-66
2022/01/18 11:29:42;;;;;;;9.43;4.18;;;5.70;99.90;;;;;;5055931;28;20024;-67
2022/01/18 11:32:10;;;;;;;11.23;4.15;;;5.70;99.90;;;;;;5059129;28;20495;-66
2022/01/18 11:34:55;;;;;;;10.52;3.90;;;5.70;99.90;;;;;;5038336;28;20037;-65
2022/01/18 11:37:58;;;;;;;11.05;4.47;;;5.70;99.90;;;;;;5034444;28;20025;-66
2022/01/18 11:40:25;;;;;;;7.93;4.22;;;5.70;99.90;;;;;;5065826;28;20031;-67
2022/01/18 11:42:56;;;;;;;12.80;4.70;;;5.80;99.90;;;;;;5070777;28;20035;-67
2022/01/18 11:45:25;;;;;;;13.45;4.47;;;5.80;99.90;;;;;;5069244;28;20519;-67
2022/01/18 11:48:11;;;;;;;9.52;4.05;;;5.80;99.90;;;;;;5052800;28;20039;-67
2022/01/18 11:50:49;;;;;;;9.48;4.35;;;5.80;99.90;;;;;;5033985;28;20033;-66
2022/01/18 11:53:26;;;;;;;9.98;4.15;;;5.80;99.90;;;;;;5034556;28;20046;-67
2022/01/18 11:55:57;;;;;;;8.55;4.05;;;5.90;99.90;;;;;;5057662;28;20020;-68
2022/01/18 11:58:24;;;;;;;12.23;3.97;;;5.90;99.90;;;;;;5067773;28;20021;-68
2022/01/18 12:00:57;;;;;;;9.18;4.30;;;5.90;99.90;;;;;;5035401;28;20476;-68
2022/01/18 12:03:30;;;;;;;10.35;4.00;;;5.90;99.90;;;;;;5037482;28;20472;-69
2022/01/18 12:06:02;;;;;;;10.63;3.85;;;5.90;99.90;;;;;;5034526;28;20052;-68
2022/01/18 12:08:39;;;;;;;8.38;3.65;;;5.90;99.90;;;;;;5038412;28;20027;-69
2022/01/18 12:11:36;;;;;;;8.75;4.18;;;5.90;99.90;;;;;;5066572;28;20036;-69
2022/01/18 12:14:04;;;;;;;13.07;5.20;;;5.80;99.90;;;;;;5050515;28;20040;-68
2022/01/18 12:16:30;;;;;;;11.38;4.45;;;5.80;99.90;;;;;;5033595;28;20025;-67
2022/01/18 12:19:00;;;;;;;10.35;4.45;;;5.70;99.90;;;;;;5054117;28;20476;-68
2022/01/18 12:21:29;;;;;;;10.73;4.68;;;5.70;99.90;;;;;;5053424;28;20024;-68
2022/01/18 12:24:16;;;;;;;17.38;6.20;;;5.70;99.90;;;;;;5050218;28;20140;-67
2022/01/18 12:26:46;;;;;;;13.13;5.50;;;5.70;99.90;;;;;;5073625;28;20070;-68
2022/01/18 12:30:00;;;;;;;7.97;4.07;;;5.70;99.90;;;;;;5048130;28;20504;-69
2022/01/18 12:32:20;;;;;;;8.23;3.70;;;5.60;99.90;;;;;;5050888;28;20496;-68
2022/01/18 12:34:49;;;;;;;6.90;3.80;;;5.60;99.90;;;;;;5034395;28;20087;-69
2022/01/18 12:37:19;;;;;;;5.05;3.42;;;5.60;99.90;;;;;;5033551;28;20025;-68
2022/01/18 12:39:51;;;;;;;8.68;3.88;;;5.50;99.90;;;;;;5064459;28;20044;-66
2022/01/18 12:45:02;;;;;;;8.02;3.53;;;5.50;99.90;;;;;;5056130;28;20079;-69
2022/01/18 12:47:29;;;;;;;6.85;3.67;;;5.50;99.90;;;;;;5036300;28;20048;-69
2022/01/18 12:49:55;;;;;;;10.90;3.90;;;5.50;99.90;;;;;;5036894;28;20025;-68
2022/01/18 12:52:22;;;;;;;7.95;4.05;;;5.50;99.90;;;;;;5036880;28;20465;-67
2022/01/18 12:54:48;;;;;;;10.75;4.53;;;5.50;99.90;;;;;;5037416;28;20040;-68
2022/01/18 12:57:23;;;;;;;7.22;3.70;;;5.50;99.90;;;;;;5043000;28;20533;-67
2022/01/18 13:00:08;;;;;;;9.80;3.95;;;5.50;99.90;;;;;;5056824;28;20043;-68
2022/01/18 13:02:35;;;;;;;9.25;4.25;;;5.40;99.90;;;;;;5054849;28;20028;-68
2022/01/18 13:05:05;;;;;;;9.00;3.65;;;5.50;99.90;;;;;;5054007;28;20025;-68
2022/01/18 13:07:30;;;;;;;8.25;4.03;;;5.40;99.90;;;;;;5057629;28;20020;-68
2022/01/18 13:09:57;;;;;;;7.75;3.90;;;5.50;99.90;;;;;;5052572;28;20494;-68
2022/01/18 13:12:36;;;;;;;9.63;4.15;;;5.50;99.90;;;;;;5051286;28;20082;-68
2022/01/18 13:15:05;;;;;;;11.85;3.90;;;5.50;99.90;;;;;;5063452;28;20020;-68
2022/01/18 13:23:14;;;;;;;7.57;3.70;;;5.50;99.90;;;;;;5057257;28;20104;-67
2022/01/18 13:25:53;;;;;;;10.05;3.17;;;5.40;99.90;;;;;;5055819;28;20036;-67
2022/01/18 13:28:19;;;;;;;5.75;3.17;;;5.50;99.90;;;;;;5054483;28;20036;-68
2022/01/18 13:30:45;;;;;;;6.47;3.35;;;5.50;99.90;;;;;;5053223;28;20124;-68
2022/01/18 13:33:12;;;;;;;7.88;3.85;;;5.50;99.90;;;;;;5036385;28;20137;-67
2022/01/18 13:35:38;;;;;;;7.07;3.75;;;5.50;99.90;;;;;;5037037;28;20113;-68
2022/01/18 13:38:04;;;;;;;13.02;3.80;;;5.50;99.90;;;;;;5045016;28;20115;-69
2022/01/18 13:40:35;;;;;;;8.70;3.95;;;5.50;99.90;;;;;;5074178;28;20016;-69
2022/01/18 13:43:09;;;;;;;5.65;3.28;;;5.50;99.90;;;;;;5054474;28;20028;-68
2022/01/18 13:45:38;;;;;;;7.85;3.35;;;5.50;99.90;;;;;;5054726;28;20029;-68
2022/01/18 13:48:06;;;;;;;6.13;3.58;;;5.60;99.90;;;;;;5036194;28;20024;-67
2022/01/18 13:50:32;;;;;;;6.93;3.05;;;5.60;99.90;;;;;;5065621;28;20020;-68
2022/01/18 13:53:02;;;;;;;5.80;3.08;;;5.50;99.90;;;;;;5065910;28;20055;-68
2022/01/18 13:55:29;;;;;;;4.03;2.85;;;5.50;99.90;;;;;;5072398;28;20051;-66
2022/01/18 13:57:59;;;;;;;4.75;2.90;;;5.50;99.90;;;;;;5052131;28;20065;-68
2022/01/18 14:00:29;;;;;;;6.80;3.58;;;5.50;99.90;;;;;;5055958;28;20170;-68
2022/01/18 14:02:56;;;;;;;5.82;3.38;;;5.50;99.90;;;;;;5043561;28;20120;-68
2022/01/18 14:05:24;;;;;;;6.78;3.88;;;5.40;99.90;;;;;;5035642;28;20033;-69
2022/01/18 14:08:04;;;;;;;7.97;4.22;;;5.40;99.90;;;;;;5034789;28;20540;-69
2022/01/18 14:10:30;;;;;;;7.40;4.20;;;5.40;99.90;;;;;;5036948;28;20055;-68
2022/01/18 14:12:56;;;;;;;6.45;3.88;;;5.40;99.90;;;;;;5038202;28;20029;-68
2022/01/18 14:15:39;;;;;;;7.00;3.45;;;5.40;99.90;;;;;;5035512;28;20059;-68
2022/01/18 14:18:05;;;;;;;7.10;3.80;;;5.40;99.90;;;;;;5053108;28;20024;-68
2022/01/18 14:20:32;;;;;;;7.50;5.10;;;5.40;99.90;;;;;;5054370;28;20366;-68